sensor_id;sensor_type;location;lat;lon;timestamp;pressure;altitude;pressure_sealevel;temperature;humidity
4745;BME280;2386;42.138;24.746;2024-02-16T00:00:08;100213.59;;;9.46;56.28
4745;BME280;2386;42.138;24.746;2024-02-16T00:02:33;100213.81;;;9.38;56.10
4745;BME280;2386;42.138;24.746;2024-02-16T00:04:59;100214.66;;;9.39;56.97
4745;BME280;2386;42.138;24.746;2024-02-16T00:07:25;100221.09;;;9.31;56.60
4745;BME280;2386;42.138;24.746;2024-02-16T00:09:50;100218.59;;;9.30;56.69
4745;BME280;2386;42.138;24.746;2024-02-16T00:12:15;100216.31;;;9.20;56.75
4745;BME280;2386;42.138;24.746;2024-02-16T00:14:42;100225.03;;;9.02;56.83
4745;BME280;2386;42.138;24.746;2024-02-16T00:17:07;100227.09;;;9.00;58.37
4745;BME280;2386;42.138;24.746;2024-02-16T00:19:35;100226.88;;;8.95;57.42
4745;BME280;2386;42.138;24.746;2024-02-16T00:22:01;100214.22;;;8.89;58.11
4745;BME280;2386;42.138;24.746;2024-02-16T00:24:26;100224.56;;;8.72;58.45
4745;BME280;2386;42.138;24.746;2024-02-16T00:26:51;100221.25;;;8.77;57.60
4745;BME280;2386;42.138;24.746;2024-02-16T00:29:17;100217.88;;;8.62;58.70
4745;BME280;2386;42.138;24.746;2024-02-16T00:31:42;100228.09;;;8.73;58.80
4745;BME280;2386;42.138;24.746;2024-02-16T00:34:08;100218.72;;;8.69;58.63
4745;BME280;2386;42.138;24.746;2024-02-16T00:36:33;100222.47;;;8.68;58.69
4745;BME280;2386;42.138;24.746;2024-02-16T00:38:59;100218.53;;;8.70;58.59
4745;BME280;2386;42.138;24.746;2024-02-16T00:41:24;100215.59;;;8.65;58.51
4745;BME280;2386;42.138;24.746;2024-02-16T00:43:50;100221.22;;;8.64;58.42
4745;BME280;2386;42.138;24.746;2024-02-16T00:46:17;100214.75;;;8.65;58.37
4745;BME280;2386;42.138;24.746;2024-02-16T00:48:43;100212.50;;;8.68;58.75
4745;BME280;2386;42.138;24.746;2024-02-16T00:51:08;100213.34;;;8.75;58.10
4745;BME280;2386;42.138;24.746;2024-02-16T00:53:34;100205.25;;;8.82;57.37
4745;BME280;2386;42.138;24.746;2024-02-16T00:55:59;100214.41;;;8.87;57.67
4745;BME280;2386;42.138;24.746;2024-02-16T00:58:24;100210.22;;;8.92;56.65
4745;BME280;2386;42.138;24.746;2024-02-16T01:00:50;100220.44;;;8.89;56.69
4745;BME280;2386;42.138;24.746;2024-02-16T01:03:15;100210.44;;;8.77;57.75
4745;BME280;2386;42.138;24.746;2024-02-16T01:05:41;100216.06;;;8.82;56.98
4745;BME280;2386;42.138;24.746;2024-02-16T01:08:06;100213.53;;;8.74;58.14
4745;BME280;2386;42.138;24.746;2024-02-16T01:10:32;100209.19;;;8.79;57.67
4745;BME280;2386;42.138;24.746;2024-02-16T01:12:57;100207.94;;;8.82;57.91
4745;BME280;2386;42.138;24.746;2024-02-16T01:15:23;100212.28;;;8.70;58.51
4745;BME280;2386;42.138;24.746;2024-02-16T01:17:48;100217.88;;;8.62;58.40
4745;BME280;2386;42.138;24.746;2024-02-16T01:20:14;100213.72;;;8.66;58.42
4745;BME280;2386;42.138;24.746;2024-02-16T01:22:40;100212.91;;;8.65;58.58
4745;BME280;2386;42.138;24.746;2024-02-16T01:25:06;100213.94;;;8.71;58.51
4745;BME280;2386;42.138;24.746;2024-02-16T01:27:32;100216.03;;;8.75;57.92
4745;BME280;2386;42.138;24.746;2024-02-16T01:29:57;100212.53;;;8.81;57.91
4745;BME280;2386;42.138;24.746;2024-02-16T01:32:23;100214.59;;;8.79;57.22
4745;BME280;2386;42.138;24.746;2024-02-16T01:34:49;100204.63;;;8.80;56.43
4745;BME280;2386;42.138;24.746;2024-02-16T01:37:15;100215.44;;;8.86;56.87
4745;BME280;2386;42.138;24.746;2024-02-16T01:39:40;100211.06;;;8.79;57.56
4745;BME280;2386;42.138;24.746;2024-02-16T01:42:06;100213.75;;;8.72;57.59
4745;BME280;2386;42.138;24.746;2024-02-16T01:44:31;100207.28;;;8.67;58.10
4745;BME280;2386;42.138;24.746;2024-02-16T01:46:57;100211.47;;;8.76;57.63
4745;BME280;2386;42.138;24.746;2024-02-16T01:49:22;100211.47;;;8.76;57.53
4745;BME280;2386;42.138;24.746;2024-02-16T01:51:48;100212.28;;;8.70;58.11
4745;BME280;2386;42.138;24.746;2024-02-16T01:54:14;100213.75;;;8.72;57.67
4745;BME280;2386;42.138;24.746;2024-02-16T01:56:43;100209.81;;;8.75;58.22
4745;BME280;2386;42.138;24.746;2024-02-16T01:59:09;100216.25;;;8.74;58.51
4745;BME280;2386;42.138;24.746;2024-02-16T02:01:34;100212.28;;;8.70;58.34
4745;BME280;2386;42.138;24.746;2024-02-16T02:04:01;100212.69;;;8.67;58.15
4745;BME280;2386;42.138;24.746;2024-02-16T02:06:26;100214.13;;;8.56;58.32
4745;BME280;2386;42.138;24.746;2024-02-16T02:08:52;100208.72;;;8.63;58.38
4745;BME280;2386;42.138;24.746;2024-02-16T02:11:17;100203.94;;;8.65;57.49
4745;BME280;2386;42.138;24.746;2024-02-16T02:13:43;100214.78;;;8.71;57.38
4745;BME280;2386;42.138;24.746;2024-02-16T02:16:10;100210.00;;;8.73;57.24
4745;BME280;2386;42.138;24.746;2024-02-16T02:18:35;100215.22;;;8.75;56.85
4745;BME280;2386;42.138;24.746;2024-02-16T02:21:01;100213.13;;;8.77;56.82
4745;BME280;2386;42.138;24.746;2024-02-16T02:23:26;100204.22;;;8.83;56.31
4745;BME280;2386;42.138;24.746;2024-02-16T02:25:52;100203.38;;;8.82;56.51
4745;BME280;2386;42.138;24.746;2024-02-16T02:28:18;100204.63;;;8.86;56.37
4745;BME280;2386;42.138;24.746;2024-02-16T02:30:44;100202.13;;;8.85;56.35
4745;BME280;2386;42.138;24.746;2024-02-16T02:33:12;100211.91;;;8.86;56.14
4745;BME280;2386;42.138;24.746;2024-02-16T02:35:39;100203.78;;;8.86;55.81
4745;BME280;2386;42.138;24.746;2024-02-16T02:38:05;100196.69;;;8.78;56.45
4745;BME280;2386;42.138;24.746;2024-02-16T02:40:31;100200.03;;;8.80;56.03
4745;BME280;2386;42.138;24.746;2024-02-16T02:42:57;100200.44;;;8.77;56.39
4745;BME280;2386;42.138;24.746;2024-02-16T02:45:23;100195.03;;;8.71;56.81
4745;BME280;2386;42.138;24.746;2024-02-16T02:47:49;100193.16;;;8.71;56.99
4745;BME280;2386;42.138;24.746;2024-02-16T02:50:15;100188.75;;;8.64;57.08
4745;BME280;2386;42.138;24.746;2024-02-16T02:52:40;100198.53;;;8.65;57.24
4745;BME280;2386;42.138;24.746;2024-02-16T02:55:06;100195.78;;;8.51;57.58
4745;BME280;2386;42.138;24.746;2024-02-16T02:57:32;100193.28;;;8.50;57.36
4745;BME280;2386;42.138;24.746;2024-02-16T03:00:07;100192.44;;;8.43;57.48
4745;BME280;2386;42.138;24.746;2024-02-16T03:02:39;100199.72;;;8.42;58.13
4745;BME280;2386;42.138;24.746;2024-02-16T03:05:06;100199.09;;;8.40;58.22
4745;BME280;2386;42.138;24.746;2024-02-16T03:07:35;100199.88;;;8.34;58.58
4745;BME280;2386;42.138;24.746;2024-02-16T03:10:01;100197.81;;;8.36;58.57
4745;BME280;2386;42.138;24.746;2024-02-16T03:12:27;100199.47;;;8.37;58.24
4745;BME280;2386;42.138;24.746;2024-02-16T03:14:53;100189.06;;;8.34;57.70
4745;BME280;2386;42.138;24.746;2024-02-16T03:17:18;100193.28;;;8.43;57.90
4745;BME280;2386;42.138;24.746;2024-02-16T03:19:44;100199.31;;;8.45;56.96
4745;BME280;2386;42.138;24.746;2024-02-16T03:22:09;100199.94;;;8.47;57.06
4745;BME280;2386;42.138;24.746;2024-02-16T03:24:34;100208.91;;;8.54;56.60
4745;BME280;2386;42.138;24.746;2024-02-16T03:27:00;100203.28;;;8.49;56.37
4745;BME280;2386;42.138;24.746;2024-02-16T03:29:26;100205.34;;;8.47;56.13
4745;BME280;2386;42.138;24.746;2024-02-16T03:31:51;100201.59;;;8.48;56.40
4745;BME280;2386;42.138;24.746;2024-02-16T03:34:17;100208.69;;;8.49;56.50
4745;BME280;2386;42.138;24.746;2024-02-16T03:36:42;100204.75;;;8.52;57.09
4745;BME280;2386;42.138;24.746;2024-02-16T03:39:08;100204.09;;;8.43;57.48
4745;BME280;2386;42.138;24.746;2024-02-16T03:41:34;100211.38;;;8.49;57.11
4745;BME280;2386;42.138;24.746;2024-02-16T03:44:00;100211.56;;;8.41;57.42
4745;BME280;2386;42.138;24.746;2024-02-16T03:46:26;100218.00;;;8.40;57.76
4745;BME280;2386;42.138;24.746;2024-02-16T03:48:51;100223.03;;;8.50;57.90
4745;BME280;2386;42.138;24.746;2024-02-16T03:51:16;100219.50;;;8.49;57.86
4745;BME280;2386;42.138;24.746;2024-02-16T03:53:42;100223.00;;;8.43;57.96
4745;BME280;2386;42.138;24.746;2024-02-16T03:56:10;100230.28;;;8.43;58.46
4745;BME280;2386;42.138;24.746;2024-02-16T03:58:36;100224.03;;;8.42;58.43
4745;BME280;2386;42.138;24.746;2024-02-16T04:01:02;100220.84;;;8.32;58.82
4745;BME280;2386;42.138;24.746;2024-02-16T04:03:27;100230.25;;;8.36;59.30
4745;BME280;2386;42.138;24.746;2024-02-16T04:05:53;100220.31;;;8.43;58.58
4745;BME280;2386;42.138;24.746;2024-02-16T04:08:18;100216.31;;;8.33;59.65
4745;BME280;2386;42.138;24.746;2024-02-16T04:10:45;100222.06;;;8.23;59.68
4745;BME280;2386;42.138;24.746;2024-02-16T04:13:10;100222.72;;;8.32;60.23
4745;BME280;2386;42.138;24.746;2024-02-16T04:15:36;100219.56;;;8.21;60.58
4745;BME280;2386;42.138;24.746;2024-02-16T04:18:01;100223.28;;;8.20;60.60
4745;BME280;2386;42.138;24.746;2024-02-16T04:20:28;100224.97;;;8.28;60.18
4745;BME280;2386;42.138;24.746;2024-02-16T04:22:53;100225.97;;;8.14;61.06
4745;BME280;2386;42.138;24.746;2024-02-16T04:25:18;100223.09;;;8.22;60.46
4745;BME280;2386;42.138;24.746;2024-02-16T04:27:44;100227.22;;;8.11;60.79
4745;BME280;2386;42.138;24.746;2024-02-16T04:30:09;100228.06;;;8.12;60.41
4745;BME280;2386;42.138;24.746;2024-02-16T04:32:35;100232.63;;;8.18;60.93
4745;BME280;2386;42.138;24.746;2024-02-16T04:35:00;100232.03;;;8.16;61.52
4745;BME280;2386;42.138;24.746;2024-02-16T04:37:26;100236.34;;;8.10;62.31
4745;BME280;2386;42.138;24.746;2024-02-16T04:39:51;100243.78;;;8.02;62.67
4745;BME280;2386;42.138;24.746;2024-02-16T04:42:17;100239.28;;;8.15;62.23
4745;BME280;2386;42.138;24.746;2024-02-16T04:44:42;100243.66;;;8.23;61.63
4745;BME280;2386;42.138;24.746;2024-02-16T04:47:08;100240.53;;;8.13;62.73
4745;BME280;2386;42.138;24.746;2024-02-16T04:49:35;100244.69;;;8.22;61.88
4745;BME280;2386;42.138;24.746;2024-02-16T04:52:00;100236.31;;;8.04;62.80
4745;BME280;2386;42.138;24.746;2024-02-16T04:54:26;100241.88;;;7.96;63.25
4745;BME280;2386;42.138;24.746;2024-02-16T04:56:51;100238.69;;;7.85;63.50
4745;BME280;2386;42.138;24.746;2024-02-16T04:59:17;100247.72;;;7.71;64.22
4745;BME280;2386;42.138;24.746;2024-02-16T05:01:43;100246.91;;;7.71;64.19
4745;BME280;2386;42.138;24.746;2024-02-16T05:04:10;100242.38;;;7.50;65.02
4745;BME280;2386;42.138;24.746;2024-02-16T05:06:42;100252.25;;;7.36;65.85
4745;BME280;2386;42.138;24.746;2024-02-16T05:09:07;100251.31;;;7.50;65.38
4745;BME280;2386;42.138;24.746;2024-02-16T05:11:33;100251.88;;;7.39;65.13
4745;BME280;2386;42.138;24.746;2024-02-16T05:13:58;100266.03;;;7.48;65.18
4745;BME280;2386;42.138;24.746;2024-02-16T05:16:25;100257.47;;;7.44;64.97
4745;BME280;2386;42.138;24.746;2024-02-16T05:18:50;100262.66;;;7.39;65.31
4745;BME280;2386;42.138;24.746;2024-02-16T05:21:16;100261.22;;;7.43;65.28
4745;BME280;2386;42.138;24.746;2024-02-16T05:23:41;100263.19;;;7.56;64.27
4745;BME280;2386;42.138;24.746;2024-02-16T05:26:06;100265.00;;;7.49;64.52
4745;BME280;2386;42.138;24.746;2024-02-16T05:28:32;100265.34;;;7.39;65.13
4745;BME280;2386;42.138;24.746;2024-02-16T05:31:03;100272.22;;;7.42;65.28
4745;BME280;2386;42.138;24.746;2024-02-16T05:33:37;100273.88;;;7.43;64.89
4745;BME280;2386;42.138;24.746;2024-02-16T05:36:02;100273.66;;;7.38;65.03
4745;BME280;2386;42.138;24.746;2024-02-16T05:38:28;100277.38;;;7.37;65.27
4745;BME280;2386;42.138;24.746;2024-02-16T05:41:00;100273.41;;;7.33;66.27
4745;BME280;2386;42.138;24.746;2024-02-16T05:43:26;100277.75;;;7.34;66.46
4745;BME280;2386;42.138;24.746;2024-02-16T05:45:52;100284.44;;;7.38;65.66
4745;BME280;2386;42.138;24.746;2024-02-16T05:48:17;100295.25;;;7.38;65.92
4745;BME280;2386;42.138;24.746;2024-02-16T05:50:44;100292.28;;;7.33;66.29
4745;BME280;2386;42.138;24.746;2024-02-16T05:53:10;100294.34;;;7.31;66.31
4745;BME280;2386;42.138;24.746;2024-02-16T05:55:36;100293.25;;;7.25;66.69
4745;BME280;2386;42.138;24.746;2024-02-16T05:58:02;100294.28;;;7.24;67.11
4745;BME280;2386;42.138;24.746;2024-02-16T06:00:32;100295.09;;;7.24;66.74
4745;BME280;2386;42.138;24.746;2024-02-16T06:02:58;100287.41;;;7.21;66.85
4745;BME280;2386;42.138;24.746;2024-02-16T06:05:24;100293.75;;;7.35;66.69
4745;BME280;2386;42.138;24.746;2024-02-16T06:07:49;100289.19;;;7.14;66.79
4745;BME280;2386;42.138;24.746;2024-02-16T06:10:15;100284.69;;;7.21;67.07
4745;BME280;2386;42.138;24.746;2024-02-16T06:12:40;100289.72;;;7.24;67.55
4745;BME280;2386;42.138;24.746;2024-02-16T06:15:06;100283.28;;;7.25;67.21
4745;BME280;2386;42.138;24.746;2024-02-16T06:17:31;100297.59;;;7.47;66.74
4745;BME280;2386;42.138;24.746;2024-02-16T06:19:57;100298.56;;;7.40;66.94
4745;BME280;2386;42.138;24.746;2024-02-16T06:22:22;100297.38;;;7.49;66.21
4745;BME280;2386;42.138;24.746;2024-02-16T06:24:48;100295.97;;;7.53;66.17
4745;BME280;2386;42.138;24.746;2024-02-16T06:27:13;100304.97;;;7.60;66.13
4745;BME280;2386;42.138;24.746;2024-02-16T06:29:39;100299.63;;;7.67;65.88
4745;BME280;2386;42.138;24.746;2024-02-16T06:32:04;100305.06;;;7.73;65.43
4745;BME280;2386;42.138;24.746;2024-02-16T06:34:30;100299.94;;;7.78;64.89
4745;BME280;2386;42.138;24.746;2024-02-16T06:36:56;100307.25;;;7.84;64.80
4745;BME280;2386;42.138;24.746;2024-02-16T06:39:22;100302.69;;;7.85;65.23
4745;BME280;2386;42.138;24.746;2024-02-16T06:41:47;100308.38;;;7.97;64.35
4745;BME280;2386;42.138;24.746;2024-02-16T06:44:15;100302.03;;;8.11;64.35
4745;BME280;2386;42.138;24.746;2024-02-16T06:46:42;100302.50;;;8.21;63.09
4745;BME280;2386;42.138;24.746;2024-02-16T06:49:07;100314.28;;;8.07;63.75
4745;BME280;2386;42.138;24.746;2024-02-16T06:51:33;100314.84;;;8.02;64.48
4745;BME280;2386;42.138;24.746;2024-02-16T06:53:58;100309.09;;;8.12;64.14
4745;BME280;2386;42.138;24.746;2024-02-16T06:56:26;100320.16;;;8.17;63.41
4745;BME280;2386;42.138;24.746;2024-02-16T06:58:51;100314.50;;;8.12;63.30
4745;BME280;2386;42.138;24.746;2024-02-16T07:01:17;100304.06;;;8.02;63.88
4745;BME280;2386;42.138;24.746;2024-02-16T07:03:45;100301.34;;;8.02;64.23
4745;BME280;2386;42.138;24.746;2024-02-16T07:06:12;100313.44;;;8.06;64.12
4745;BME280;2386;42.138;24.746;2024-02-16T07:08:40;100309.56;;;8.15;64.35
4745;BME280;2386;42.138;24.746;2024-02-16T07:11:05;100316.38;;;8.18;64.55
4745;BME280;2386;42.138;24.746;2024-02-16T07:13:34;100311.63;;;8.20;64.40
4745;BME280;2386;42.138;24.746;2024-02-16T07:16:00;100308.88;;;8.41;63.39
4745;BME280;2386;42.138;24.746;2024-02-16T07:18:25;100305.56;;;8.46;62.56
4745;BME280;2386;42.138;24.746;2024-02-16T07:20:51;100315.81;;;8.57;62.73
4745;BME280;2386;42.138;24.746;2024-02-16T07:23:16;100317.75;;;8.70;62.09
4745;BME280;2386;42.138;24.746;2024-02-16T07:25:43;100309.47;;;8.78;61.23
4745;BME280;2386;42.138;24.746;2024-02-16T07:28:08;100318.69;;;8.90;60.82
4745;BME280;2386;42.138;24.746;2024-02-16T07:30:35;100322.00;;;8.99;60.23
4745;BME280;2386;42.138;24.746;2024-02-16T07:33:07;100325.13;;;9.02;60.09
4745;BME280;2386;42.138;24.746;2024-02-16T07:35:36;100318.91;;;9.02;59.19
4745;BME280;2386;42.138;24.746;2024-02-16T07:38:02;100326.44;;;9.13;59.79
4745;BME280;2386;42.138;24.746;2024-02-16T07:40:27;100324.41;;;9.35;58.86
4745;BME280;2386;42.138;24.746;2024-02-16T07:42:53;100321.72;;;9.48;58.87
4745;BME280;2386;42.138;24.746;2024-02-16T07:45:19;100320.06;;;9.60;58.31
4745;BME280;2386;42.138;24.746;2024-02-16T07:47:45;100322.97;;;9.92;57.52
4745;BME280;2386;42.138;24.746;2024-02-16T07:50:11;100326.28;;;9.94;56.87
4745;BME280;2386;42.138;24.746;2024-02-16T07:52:38;100325.25;;;10.08;56.33
4745;BME280;2386;42.138;24.746;2024-02-16T07:55:06;100327.56;;;10.24;55.64
4745;BME280;2386;42.138;24.746;2024-02-16T07:57:31;100327.31;;;10.19;56.03
4745;BME280;2386;42.138;24.746;2024-02-16T07:59:57;100324.59;;;10.19;55.06
4745;BME280;2386;42.138;24.746;2024-02-16T08:02:22;100326.09;;;10.22;55.23
4745;BME280;2386;42.138;24.746;2024-02-16T08:04:48;100319.19;;;10.12;56.00
4745;BME280;2386;42.138;24.746;2024-02-16T08:07:14;100321.28;;;10.30;55.50
4745;BME280;2386;42.138;24.746;2024-02-16T08:09:43;100320.03;;;10.33;55.12
4745;BME280;2386;42.138;24.746;2024-02-16T08:12:09;100322.91;;;10.44;54.44
4745;BME280;2386;42.138;24.746;2024-02-16T08:14:34;100315.34;;;10.60;54.64
4745;BME280;2386;42.138;24.746;2024-02-16T08:17:00;100325.56;;;10.58;53.69
4745;BME280;2386;42.138;24.746;2024-02-16T08:19:32;100316.19;;;10.53;54.28
4745;BME280;2386;42.138;24.746;2024-02-16T08:21:59;100325.41;;;10.46;53.70
4745;BME280;2386;42.138;24.746;2024-02-16T08:24:25;100319.97;;;10.46;53.92
4745;BME280;2386;42.138;24.746;2024-02-16T08:26:51;100323.38;;;10.35;53.93
4745;BME280;2386;42.138;24.746;2024-02-16T08:29:16;100322.53;;;10.34;53.74
4745;BME280;2386;42.138;24.746;2024-02-16T08:31:42;100322.06;;;10.44;53.73
4745;BME280;2386;42.138;24.746;2024-02-16T08:34:09;100324.81;;;10.37;53.88
4745;BME280;2386;42.138;24.746;2024-02-16T08:36:36;100325.00;;;10.42;53.36
4745;BME280;2386;42.138;24.746;2024-02-16T08:39:03;100333.09;;;10.49;53.08
4745;BME280;2386;42.138;24.746;2024-02-16T08:41:28;100327.03;;;10.60;53.44
4745;BME280;2386;42.138;24.746;2024-02-16T08:43:53;100336.63;;;10.56;53.07
4745;BME280;2386;42.138;24.746;2024-02-16T08:46:20;100324.91;;;10.69;52.57
4745;BME280;2386;42.138;24.746;2024-02-16T08:48:45;100322.81;;;10.71;53.09
4745;BME280;2386;42.138;24.746;2024-02-16T08:51:11;100328.66;;;10.68;52.96
4745;BME280;2386;42.138;24.746;2024-02-16T08:53:36;100329.47;;;10.75;53.14
4745;BME280;2386;42.138;24.746;2024-02-16T08:56:02;100319.25;;;10.77;52.67
4745;BME280;2386;42.138;24.746;2024-02-16T08:58:27;100325.09;;;10.74;52.98
4745;BME280;2386;42.138;24.746;2024-02-16T09:00:53;100326.75;;;10.81;53.41
4745;BME280;2386;42.138;24.746;2024-02-16T09:03:18;100330.28;;;10.82;53.44
4745;BME280;2386;42.138;24.746;2024-02-16T09:05:44;100329.88;;;10.85;53.38
4745;BME280;2386;42.138;24.746;2024-02-16T09:08:10;100321.47;;;10.93;53.87
4745;BME280;2386;42.138;24.746;2024-02-16T09:10:36;100326.00;;;11.06;53.62
4745;BME280;2386;42.138;24.746;2024-02-16T09:13:01;100325.53;;;11.15;53.10
4745;BME280;2386;42.138;24.746;2024-02-16T09:15:27;100325.09;;;11.18;53.01
4745;BME280;2386;42.138;24.746;2024-02-16T09:17:53;100324.13;;;11.38;52.46
4745;BME280;2386;42.138;24.746;2024-02-16T09:20:19;100314.84;;;11.52;51.74
4745;BME280;2386;42.138;24.746;2024-02-16T09:22:48;100328.50;;;11.77;52.01
4745;BME280;2386;42.138;24.746;2024-02-16T09:25:14;100322.78;;;11.85;50.88
4745;BME280;2386;42.138;24.746;2024-02-16T09:27:40;100316.97;;;11.81;51.30
4745;BME280;2386;42.138;24.746;2024-02-16T09:30:07;100320.53;;;11.75;51.33
4745;BME280;2386;42.138;24.746;2024-02-16T09:32:35;100319.63;;;11.88;51.16
4745;BME280;2386;42.138;24.746;2024-02-16T09:35:01;100312.44;;;11.94;50.01
4745;BME280;2386;42.138;24.746;2024-02-16T09:37:26;100308.09;;;12.11;49.86
4745;BME280;2386;42.138;24.746;2024-02-16T09:39:52;100313.69;;;12.16;49.69
4745;BME280;2386;42.138;24.746;2024-02-16T09:42:17;100315.84;;;12.32;49.48
4745;BME280;2386;42.138;24.746;2024-02-16T09:44:43;100316.00;;;12.56;49.57
4745;BME280;2386;42.138;24.746;2024-02-16T09:47:10;100299.56;;;12.80;50.14
4745;BME280;2386;42.138;24.746;2024-02-16T09:49:37;100304.09;;;12.87;49.10
4745;BME280;2386;42.138;24.746;2024-02-16T09:52:04;100297.88;;;12.98;49.01
4745;BME280;2386;42.138;24.746;2024-02-16T09:54:33;100291.41;;;13.29;47.69
4745;BME280;2386;42.138;24.746;2024-02-16T09:57:02;100299.13;;;13.43;46.37
4745;BME280;2386;42.138;24.746;2024-02-16T09:59:29;100297.56;;;13.77;50.96
4745;BME280;2386;42.138;24.746;2024-02-16T10:02:00;100293.88;;;14.19;45.82
4745;BME280;2386;42.138;24.746;2024-02-16T10:04:28;100295.91;;;14.46;45.23
4745;BME280;2386;42.138;24.746;2024-02-16T10:06:55;100284.50;;;14.26;44.98
4745;BME280;2386;42.138;24.746;2024-02-16T10:09:27;100269.31;;;14.54;48.44
4745;BME280;2386;42.138;24.746;2024-02-16T10:11:57;100273.81;;;14.36;42.94
4745;BME280;2386;42.138;24.746;2024-02-16T10:14:24;100272.28;;;14.52;42.72
4745;BME280;2386;42.138;24.746;2024-02-16T10:17:04;100274.66;;;14.49;42.56
4745;BME280;2386;42.138;24.746;2024-02-16T10:19:31;100271.34;;;14.46;42.12
4745;BME280;2386;42.138;24.746;2024-02-16T10:22:09;100262.75;;;14.66;42.38
4745;BME280;2386;42.138;24.746;2024-02-16T10:24:37;100262.75;;;14.66;40.72
4745;BME280;2386;42.138;24.746;2024-02-16T10:27:05;100247.13;;;14.50;40.40
4745;BME280;2386;42.138;24.746;2024-02-16T10:29:32;100250.16;;;14.65;40.93
4745;BME280;2386;42.138;24.746;2024-02-16T10:31:57;100257.16;;;14.73;40.41
4745;BME280;2386;42.138;24.746;2024-02-16T10:34:24;100249.22;;;14.60;40.67
4745;BME280;2386;42.138;24.746;2024-02-16T10:36:51;100255.03;;;14.63;40.12
4745;BME280;2386;42.138;24.746;2024-02-16T10:39:17;100253.03;;;14.59;41.00
4745;BME280;2386;42.138;24.746;2024-02-16T10:41:44;100249.09;;;14.66;41.01
4745;BME280;2386;42.138;24.746;2024-02-16T10:44:11;100253.13;;;14.64;41.37
4745;BME280;2386;42.138;24.746;2024-02-16T10:46:36;100251.69;;;14.73;41.35
4745;BME280;2386;42.138;24.746;2024-02-16T10:49:03;100247.44;;;14.65;41.41
4745;BME280;2386;42.138;24.746;2024-02-16T10:51:40;100238.34;;;14.48;41.25
4745;BME280;2386;42.138;24.746;2024-02-16T10:54:08;100244.94;;;14.64;41.07
4745;BME280;2386;42.138;24.746;2024-02-16T10:56:35;100241.34;;;14.75;40.92
4745;BME280;2386;42.138;24.746;2024-02-16T10:59:06;100242.69;;;14.89;41.04
4745;BME280;2386;42.138;24.746;2024-02-16T11:01:43;100227.91;;;14.85;41.22
4745;BME280;2386;42.138;24.746;2024-02-16T11:04:14;100230.88;;;14.84;41.67
4745;BME280;2386;42.138;24.746;2024-02-16T11:09:34;100234.13;;;14.69;41.83
4745;BME280;2386;42.138;24.746;2024-02-16T11:12:04;100229.69;;;14.79;41.79
4745;BME280;2386;42.138;24.746;2024-02-16T11:14:42;100222.63;;;14.67;41.82
4745;BME280;2386;42.138;24.746;2024-02-16T11:17:28;100221.44;;;14.91;41.79
4745;BME280;2386;42.138;24.746;2024-02-16T11:19:54;100213.03;;;15.09;41.08
4745;BME280;2386;42.138;24.746;2024-02-16T11:22:22;100225.00;;;15.37;41.45
4745;BME280;2386;42.138;24.746;2024-02-16T11:24:50;100212.28;;;15.59;40.67
4745;BME280;2386;42.138;24.746;2024-02-16T11:27:19;100215.16;;;15.69;40.78
4745;BME280;2386;42.138;24.746;2024-02-16T11:29:46;100219.63;;;15.75;40.18
4745;BME280;2386;42.138;24.746;2024-02-16T11:32:11;100208.53;;;15.65;40.07
4745;BME280;2386;42.138;24.746;2024-02-16T11:34:38;100210.41;;;15.82;41.14
4745;BME280;2386;42.138;24.746;2024-02-16T11:37:04;100207.69;;;15.82;40.13
4745;BME280;2386;42.138;24.746;2024-02-16T11:39:33;100206.41;;;16.06;39.59
4745;BME280;2386;42.138;24.746;2024-02-16T11:42:11;100202.47;;;16.19;38.40
4745;BME280;2386;42.138;24.746;2024-02-16T11:44:38;100203.38;;;16.24;39.43
4745;BME280;2386;42.138;24.746;2024-02-16T11:47:06;100200.50;;;16.14;39.43
4745;BME280;2386;42.138;24.746;2024-02-16T11:49:40;100193.56;;;16.28;39.32
4745;BME280;2386;42.138;24.746;2024-02-16T11:52:07;100193.25;;;16.25;38.92
4745;BME280;2386;42.138;24.746;2024-02-16T11:54:32;100199.47;;;16.42;39.48
4745;BME280;2386;42.138;24.746;2024-02-16T11:56:58;100196.91;;;16.35;38.65
4745;BME280;2386;42.138;24.746;2024-02-16T11:59:24;100188.28;;;16.22;38.49
4745;BME280;2386;42.138;24.746;2024-02-16T12:04:28;100198.88;;;16.40;38.54
4745;BME280;2386;42.138;24.746;2024-02-16T12:06:58;100197.41;;;16.54;39.29
4745;BME280;2386;42.138;24.746;2024-02-16T12:09:24;100192.91;;;16.65;39.11
4745;BME280;2386;42.138;24.746;2024-02-16T12:11:50;100194.06;;;16.69;38.88
4745;BME280;2386;42.138;24.746;2024-02-16T12:14:17;100177.31;;;16.65;38.30
4745;BME280;2386;42.138;24.746;2024-02-16T12:16:50;100183.00;;;16.64;38.30
4745;BME280;2386;42.138;24.746;2024-02-16T12:19:18;100175.88;;;16.63;38.90
4745;BME280;2386;42.138;24.746;2024-02-16T12:21:43;100178.31;;;16.59;38.86
4745;BME280;2386;42.138;24.746;2024-02-16T12:24:09;100172.16;;;16.25;39.09
4745;BME280;2386;42.138;24.746;2024-02-16T12:26:36;100172.28;;;16.35;38.93
4745;BME280;2386;42.138;24.746;2024-02-16T12:29:01;100180.78;;;16.34;39.77
4745;BME280;2386;42.138;24.746;2024-02-16T12:31:26;100179.97;;;16.38;39.23
4745;BME280;2386;42.138;24.746;2024-02-16T12:33:52;100171.16;;;16.31;39.48
4745;BME280;2386;42.138;24.746;2024-02-16T12:36:17;100171.97;;;16.32;39.38
4745;BME280;2386;42.138;24.746;2024-02-16T12:38:43;100174.75;;;16.37;39.27
4745;BME280;2386;42.138;24.746;2024-02-16T12:41:09;100175.06;;;16.40;38.78
4745;BME280;2386;42.138;24.746;2024-02-16T12:43:35;100173.94;;;16.36;39.53
4745;BME280;2386;42.138;24.746;2024-02-16T12:46:00;100169.28;;;16.37;39.32
4745;BME280;2386;42.138;24.746;2024-02-16T12:48:28;100172.97;;;16.48;39.33
4745;BME280;2386;42.138;24.746;2024-02-16T12:50:54;100162.00;;;16.48;39.27
4745;BME280;2386;42.138;24.746;2024-02-16T12:53:19;100173.72;;;16.43;39.84
4745;BME280;2386;42.138;24.746;2024-02-16T12:55:46;100176.72;;;16.41;39.61
4745;BME280;2386;42.138;24.746;2024-02-16T12:58:11;100171.25;;;16.41;40.04
4745;BME280;2386;42.138;24.746;2024-02-16T13:00:38;100170.94;;;16.38;39.85
4745;BME280;2386;42.138;24.746;2024-02-16T13:03:03;100170.34;;;16.36;40.65
4745;BME280;2386;42.138;24.746;2024-02-16T13:05:29;100164.53;;;16.27;39.95
4745;BME280;2386;42.138;24.746;2024-02-16T13:07:57;100174.16;;;16.30;40.04